createdAt,value
2019-04-21T00:01:12.652Z,14.67
2019-04-21T00:03:48.629Z,13.63
2019-04-21T00:06:36.736Z,12.70
2019-04-21T00:09:14.636Z,10.80
2019-04-21T00:11:39.096Z,11.43
2019-04-21T00:13:56.159Z,12.23
2019-04-21T00:16:19.216Z,13.03
2019-04-21T00:19:07.131Z,14.80
2019-04-21T00:21:39.441Z,13.63
2019-04-21T00:24:23.897Z,12.93
2019-04-21T00:26:59.560Z,15.90
2019-04-21T00:29:34.261Z,14.60
2019-04-21T00:31:58.984Z,20.07
2019-04-21T00:34:15.326Z,18.70
2019-04-21T00:36:56.145Z,19.37
2019-04-21T00:39:43.952Z,25.57
2019-04-21T00:42:08.625Z,26.13
2019-04-21T00:44:27.490Z,27.40
2019-04-21T00:47:04.126Z,25.43
2019-04-21T00:49:35.780Z,31.07
2019-04-21T00:55:18.126Z,30.97
2019-04-21T00:57:38.877Z,25.10
2019-04-21T01:00:06.959Z,25.50
2019-04-21T01:02:43.651Z,29.03
2019-04-21T01:05:10.845Z,22.43
2019-04-21T01:07:37.286Z,24.80
2019-04-21T01:09:59.210Z,24.37
2019-04-21T01:12:37.957Z,21.63
2019-04-21T01:15:11.050Z,30.20
2019-04-21T01:17:42.953Z,26.97
2019-04-21T01:20:04.840Z,26.93
2019-04-21T01:22:18.081Z,23.87
2019-04-21T01:24:57.960Z,22.93
2019-04-21T01:27:39.751Z,28.73
2019-04-21T01:30:12.871Z,24.27
2019-04-21T01:32:42.434Z,27.00
2019-04-21T01:35:13.313Z,26.67
2019-04-21T01:37:43.808Z,28.10
2019-04-21T01:40:16.311Z,24.47
2019-04-21T01:42:45.510Z,27.23
2019-04-21T01:45:09.454Z,21.00
2019-04-21T01:47:41.907Z,24.23
2019-04-21T01:50:02.825Z,23.60
2019-04-21T01:52:50.214Z,21.20
2019-04-21T01:55:24.987Z,20.47
2019-04-21T01:57:59.364Z,24.07
2019-04-21T02:00:51.878Z,22.97
2019-04-21T02:03:48.397Z,20.33
2019-04-21T02:06:04.450Z,16.83
2019-04-21T02:08:28.715Z,19.03
2019-04-21T02:11:05.202Z,17.13
2019-04-21T02:13:27.569Z,22.13
2019-04-21T02:16:07.952Z,17.50
2019-04-21T02:18:33.450Z,19.97
2019-04-21T02:20:55.425Z,18.53
2019-04-21T02:23:38.128Z,20.10
2019-04-21T02:26:10.102Z,20.73
2019-04-21T02:28:42.421Z,15.07
2019-04-21T02:31:22.633Z,15.73
2019-04-21T02:33:54.321Z,17.33
2019-04-21T02:36:39.603Z,18.73
2019-04-21T02:39:00.694Z,19.30
2019-04-21T02:41:15.975Z,14.13
2019-04-21T02:43:54.302Z,18.87
2019-04-21T02:46:22.328Z,29.73
2019-04-21T02:48:56.400Z,16.50
2019-04-21T02:51:28.212Z,19.67
2019-04-21T02:54:24.454Z,17.97
2019-04-21T02:56:28.394Z,19.57
2019-04-21T02:59:10.850Z,15.47
2019-04-21T03:04:42.651Z,16.33
2019-04-21T03:09:53.485Z,17.60
2019-04-21T03:15:11.951Z,21.43
2019-04-21T03:22:26.486Z,16.50
2019-04-21T03:27:40.677Z,16.63
2019-04-21T03:29:59.410Z,22.33
2019-04-21T03:35:34.521Z,20.77
2019-04-21T03:37:33.411Z,15.50
2019-04-21T03:40:16.748Z,16.60
2019-04-21T03:45:04.727Z,15.80
2019-04-21T03:50:13.426Z,16.97
2019-04-21T03:52:48.245Z,16.53
2019-04-21T04:00:59.507Z,18.63
2019-04-21T04:03:33.353Z,19.17
2019-04-21T04:11:29.127Z,16.70
2019-04-21T04:13:57.946Z,14.87
2019-04-21T04:16:25.367Z,17.13
2019-04-21T04:18:53.098Z,16.07
2019-04-21T04:21:28.689Z,16.67
2019-04-21T04:26:31.601Z,18.50
2019-04-21T04:28:56.338Z,16.13
2019-04-21T04:31:35.457Z,15.67
2019-04-21T04:36:47.801Z,14.80
2019-04-21T04:42:31.310Z,18.97
2019-04-21T04:45:08.181Z,14.63
2019-04-21T04:49:51.943Z,17.37
2019-04-21T04:57:41.999Z,15.27
2019-04-21T05:02:33.650Z,17.53
2019-04-21T05:07:33.462Z,16.83
2019-04-21T05:10:00.909Z,15.53
2019-04-21T05:12:29.249Z,17.93
2019-04-21T05:15:10.115Z,17.73
2019-04-21T05:17:38.208Z,16.80
2019-04-21T05:20:10.345Z,14.77
2019-04-21T05:22:31.148Z,16.17
2019-04-21T05:24:53.887Z,17.37
2019-04-21T05:27:52.602Z,14.50
2019-04-21T05:30:49.004Z,15.20
2019-04-21T05:33:36.469Z,18.67
2019-04-21T05:36:35.298Z,17.60
2019-04-21T05:39:10.432Z,17.70
2019-04-21T05:41:34.846Z,20.63
2019-04-21T05:44:19.397Z,23.23
2019-04-21T05:46:49.407Z,21.87
2019-04-21T05:49:33.762Z,22.57
2019-04-21T05:52:05.519Z,21.73
2019-04-21T05:54:45.710Z,25.33
2019-04-21T05:57:10.108Z,27.20
2019-04-21T05:59:45.374Z,22.10
2019-04-21T06:07:24.038Z,25.03
2019-04-21T06:09:52.356Z,23.23
2019-04-21T06:12:16.124Z,24.67
2019-04-21T06:17:23.670Z,21.13
2019-04-21T06:22:19.548Z,20.33
2019-04-21T06:27:27.987Z,18.67
2019-04-21T06:29:54.715Z,15.93
2019-04-21T06:32:38.501Z,15.97
2019-04-21T06:42:27.039Z,19.87
2019-04-21T06:45:10.337Z,15.77
2019-04-21T06:47:39.185Z,21.87
2019-04-21T06:50:00.422Z,54.03
2019-04-21T06:52:47.619Z,19.77
2019-04-21T06:55:12.553Z,22.83
2019-04-21T06:57:35.002Z,20.57
2019-04-21T06:59:59.980Z,20.07
2019-04-21T07:02:43.743Z,16.60
2019-04-21T07:05:09.110Z,16.23
2019-04-21T07:07:35.610Z,17.17
2019-04-21T07:10:10.766Z,21.80
2019-04-21T07:12:33.633Z,19.47
2019-04-21T07:15:09.986Z,18.63
2019-04-21T07:20:15.909Z,17.90
2019-04-21T07:22:44.676Z,17.90
2019-04-21T07:25:28.615Z,14.17
2019-04-21T07:27:42.778Z,18.03
2019-04-21T07:30:17.617Z,16.33
2019-04-21T07:32:49.793Z,15.27
2019-04-21T07:35:17.173Z,18.90
2019-04-21T07:37:52.373Z,13.93
2019-04-21T07:40:09.121Z,15.90
2019-04-21T07:42:41.211Z,16.57
2019-04-21T07:45:11.711Z,14.87
2019-04-21T07:47:55.317Z,15.50
2019-04-21T07:50:36.630Z,15.80
2019-04-21T07:53:14.459Z,20.23
2019-04-21T07:58:13.033Z,15.77
2019-04-21T08:00:49.541Z,15.23
2019-04-21T08:03:13.759Z,17.20
2019-04-21T08:05:50.614Z,16.17
2019-04-21T08:08:05.184Z,19.30
2019-04-21T08:10:40.570Z,15.70
2019-04-21T08:13:25.282Z,15.37
2019-04-21T08:15:44.259Z,14.43
2019-04-21T08:18:21.005Z,15.50
2019-04-21T08:20:49.179Z,17.53
2019-04-21T08:23:18.627Z,15.83
2019-04-21T08:26:05.539Z,12.30
2019-04-21T08:28:20.769Z,17.07
2019-04-21T08:30:51.662Z,14.67
2019-04-21T08:36:13.187Z,17.57
2019-04-21T08:38:21.484Z,15.00
2019-04-21T08:40:57.548Z,14.53
2019-04-21T08:43:37.058Z,19.80
2019-04-21T08:45:52.960Z,14.77
2019-04-21T08:48:29.115Z,15.63
2019-04-21T08:51:08.295Z,13.80
2019-04-21T08:53:48.967Z,15.63
2019-04-21T08:56:12.302Z,15.80
2019-04-21T08:58:59.055Z,14.80
2019-04-21T09:01:42.938Z,14.73
2019-04-21T09:04:12.806Z,17.93
2019-04-21T09:07:04.844Z,12.93
2019-04-21T09:09:16.806Z,17.20
2019-04-21T09:11:52.323Z,13.80
2019-04-21T09:14:20.666Z,12.47
2019-04-21T09:16:44.345Z,15.90
2019-04-21T09:19:24.354Z,14.23
2019-04-21T09:21:52.940Z,18.77
2019-04-21T09:24:24.723Z,16.00
2019-04-21T09:26:46.630Z,12.73
2019-04-21T09:29:15.035Z,14.43
2019-04-21T09:31:39.200Z,14.07
2019-04-21T09:34:06.435Z,13.77
2019-04-21T09:36:41.291Z,14.57
2019-04-21T09:39:15.139Z,16.20
2019-04-21T09:41:41.068Z,12.30
2019-04-21T09:44:20.020Z,11.57
2019-04-21T09:46:49.744Z,11.57
2019-04-21T09:49:14.770Z,11.37
2019-04-21T09:51:43.760Z,11.97
2019-04-21T09:54:20.728Z,12.80
2019-04-21T09:56:52.375Z,11.17
2019-04-21T09:59:23.769Z,9.87
2019-04-21T10:02:00.983Z,10.37
2019-04-21T10:04:16.530Z,8.80
2019-04-21T10:06:45.975Z,7.77
2019-04-21T10:09:18.372Z,13.20
2019-04-21T10:11:46.280Z,8.07
2019-04-21T10:14:15.090Z,11.43
2019-04-21T10:17:13.168Z,8.07
2019-04-21T10:19:42.631Z,12.67
2019-04-21T10:22:12.622Z,11.70
2019-04-21T10:24:42.477Z,12.83
2019-04-21T10:27:13.274Z,10.27
2019-04-21T10:29:44.819Z,8.00
2019-04-21T10:32:13.636Z,10.50
2019-04-21T10:34:43.291Z,12.43
2019-04-21T10:37:13.308Z,10.00
2019-04-21T10:39:42.766Z,9.27
2019-04-21T10:42:13.085Z,11.90
2019-04-21T10:44:43.153Z,10.63
2019-04-21T10:47:41.044Z,13.73
2019-04-21T10:50:16.154Z,10.20
2019-04-21T10:53:02.900Z,9.87
2019-04-21T10:55:53.506Z,11.63
2019-04-21T10:58:14.609Z,8.80
2019-04-21T11:00:44.141Z,9.30
2019-04-21T11:03:44.757Z,17.27
2019-04-21T11:06:30.805Z,13.20
2019-04-21T11:08:59.953Z,13.33
2019-04-21T11:11:30.170Z,13.50
2019-04-21T11:14:00.786Z,13.23
2019-04-21T11:16:51.531Z,13.10
2019-04-21T11:19:50.797Z,12.20
2019-04-21T11:22:28.670Z,11.73
2019-04-21T11:24:58.927Z,13.70
2019-04-21T11:27:31.481Z,12.03
2019-04-21T11:30:02.330Z,9.23
2019-04-21T11:32:42.064Z,13.30
2019-04-21T11:35:07.256Z,17.93
2019-04-21T11:37:34.750Z,12.20
2019-04-21T11:40:10.531Z,13.57
2019-04-21T11:42:39.789Z,12.03
2019-04-21T11:45:10.495Z,11.40
2019-04-21T11:47:45.982Z,12.93
2019-04-21T11:50:17.179Z,11.43
2019-04-21T11:52:53.052Z,16.13
2019-04-21T11:55:33.631Z,14.90
2019-04-21T11:57:54.510Z,23.00
2019-04-21T12:00:24.829Z,14.43
2019-04-21T12:02:53.615Z,17.13
2019-04-21T12:05:23.663Z,11.63
2019-04-21T12:07:58.652Z,12.30
2019-04-21T12:10:36.043Z,11.90
2019-04-21T12:13:07.428Z,15.70
2019-04-21T12:15:40.899Z,14.23
2019-04-21T12:18:10.467Z,11.57
2019-04-21T12:20:40.792Z,11.27
2019-04-21T12:23:14.210Z,11.07
2019-04-21T12:25:47.457Z,13.07
2019-04-21T12:28:17.409Z,13.50
2019-04-21T12:30:49.509Z,12.53
2019-04-21T12:33:29.877Z,13.73
2019-04-21T12:35:59.905Z,13.37
2019-04-21T12:38:38.773Z,11.17
2019-04-21T12:41:00.417Z,15.30
2019-04-21T12:43:30.653Z,11.37
2019-04-21T12:46:00.090Z,12.47
2019-04-21T12:48:31.767Z,15.17
2019-04-21T12:51:03.805Z,13.10
2019-04-21T12:53:31.924Z,11.03
2019-04-21T12:56:02.489Z,11.57
2019-04-21T12:58:33.188Z,16.60
2019-04-21T13:01:03.026Z,10.90
2019-04-21T13:03:32.215Z,13.67
2019-04-21T13:06:01.369Z,11.70
2019-04-21T13:08:43.602Z,14.20
2019-04-21T13:11:02.271Z,15.10
2019-04-21T13:13:33.721Z,12.83
2019-04-21T13:16:03.257Z,12.97
2019-04-21T13:18:33.249Z,10.83
2019-04-21T13:21:05.928Z,13.93
2019-04-21T13:23:41.158Z,12.97
2019-04-21T13:26:27.698Z,12.10
2019-04-21T13:28:48.127Z,9.87
2019-04-21T13:31:18.237Z,10.43
2019-04-21T13:33:48.109Z,10.93
2019-04-21T13:36:18.128Z,11.97
2019-04-21T13:39:39.614Z,10.93
2019-04-21T13:41:53.250Z,20.33
2019-04-21T13:44:13.332Z,12.07
2019-04-21T13:46:47.176Z,14.57
2019-04-21T13:49:17.229Z,11.70
2019-04-21T13:51:47.997Z,10.60
2019-04-21T13:54:18.061Z,17.43
2019-04-21T13:56:47.305Z,11.10
2019-04-21T13:59:18.344Z,9.70
2019-04-21T14:01:47.854Z,12.67
2019-04-21T14:04:17.873Z,9.20
2019-04-21T14:06:48.015Z,9.80
2019-04-21T14:10:29.243Z,8.27
2019-04-21T14:13:32.258Z,11.00
2019-04-21T14:15:58.166Z,7.70
2019-04-21T14:18:26.926Z,12.27
2019-04-21T14:20:55.683Z,9.70
2019-04-21T14:23:32.532Z,12.07
2019-04-21T14:25:55.733Z,12.43
2019-04-21T14:28:35.070Z,10.70
2019-04-21T14:31:06.174Z,10.97
2019-04-21T14:33:38.676Z,8.57
2019-04-21T14:36:36.931Z,9.93
2019-04-21T14:38:58.699Z,7.50
2019-04-21T14:41:28.487Z,6.63
2019-04-21T14:44:06.882Z,7.00
2019-04-21T14:47:05.010Z,8.57
2019-04-21T14:49:53.298Z,8.33
2019-04-21T14:52:34.929Z,8.27
2019-04-21T14:55:23.039Z,7.90
2019-04-21T14:57:51.807Z,8.77
2019-04-21T15:00:22.638Z,11.87
2019-04-21T15:02:53.757Z,8.60
2019-04-21T15:05:47.305Z,7.33
2019-04-21T15:08:17.290Z,8.30
2019-04-21T15:10:47.169Z,10.90
2019-04-21T15:13:17.690Z,9.90
2019-04-21T15:15:47.920Z,8.57
2019-04-21T15:18:18.567Z,9.63
2019-04-21T15:20:50.632Z,7.30
2019-04-21T15:23:20.970Z,8.83
2019-04-21T15:25:52.286Z,5.73
2019-04-21T15:32:42.266Z,15.33
2019-04-21T15:35:09.181Z,9.20
2019-04-21T15:37:39.946Z,8.80
2019-04-21T15:40:19.341Z,7.50
2019-04-21T15:42:44.262Z,5.23
2019-04-21T15:45:14.523Z,5.10
2019-04-21T15:55:46.726Z,6.73
2019-04-21T15:58:48.392Z,8.63
2019-04-21T16:01:36.586Z,9.27
2019-04-21T16:04:18.826Z,9.00
2019-04-21T16:06:57.553Z,8.83
2019-04-21T16:09:28.908Z,6.53
2019-04-21T16:11:57.927Z,6.63
2019-04-21T16:14:29.092Z,9.20
2019-04-21T16:16:59.161Z,8.73
2019-04-21T16:19:48.093Z,7.27
2019-04-21T16:22:12.624Z,7.27
2019-04-21T16:24:44.276Z,8.10
2019-04-21T16:27:13.509Z,10.10
2019-04-21T16:29:43.882Z,5.60
2019-04-21T16:32:14.672Z,5.93
2019-04-21T16:34:50.983Z,7.20
2019-04-21T16:37:13.956Z,5.80
2019-04-21T16:39:43.318Z,7.60
2019-04-21T16:42:14.132Z,7.60
2019-04-21T16:44:43.045Z,8.87
2019-04-21T16:59:36.761Z,6.43
2019-04-21T17:02:50.399Z,5.00
2019-04-21T17:06:17.365Z,9.70
2019-04-21T17:17:45.387Z,6.73
2019-04-21T17:21:00.935Z,5.47
2019-04-21T17:23:52.459Z,5.07
2019-04-21T17:29:43.243Z,6.47
2019-04-21T17:35:44.827Z,4.23
2019-04-21T17:50:43.493Z,7.87
2019-04-21T17:54:29.225Z,7.97
2019-04-21T18:00:57.535Z,7.17
2019-04-21T18:03:14.960Z,4.37
2019-04-21T18:06:10.490Z,5.20
2019-04-21T18:13:13.671Z,5.53
2019-04-21T18:20:15.208Z,7.30
2019-04-21T18:23:42.090Z,4.17
2019-04-21T18:26:35.460Z,4.70
2019-04-21T18:29:11.750Z,4.10
2019-04-21T18:32:19.732Z,5.07
2019-04-21T18:35:47.090Z,4.33
2019-04-21T18:38:54.814Z,5.30
2019-04-21T18:41:17.836Z,7.93
2019-04-21T18:45:28.188Z,8.53
2019-04-21T18:48:02.677Z,6.67
2019-04-21T18:51:12.362Z,9.23
2019-04-21T18:54:34.038Z,9.47
2019-04-21T18:56:57.573Z,9.23
2019-04-21T18:59:40.260Z,8.73
2019-04-21T19:02:38.465Z,10.07
2019-04-21T19:05:15.141Z,12.37
2019-04-21T19:08:03.041Z,13.83
2019-04-21T19:11:02.205Z,17.63
2019-04-21T19:13:51.191Z,14.13
2019-04-21T19:17:04.429Z,23.27
2019-04-21T19:22:41.677Z,18.00
2019-04-21T19:25:47.379Z,19.87
2019-04-21T19:28:42.142Z,23.53
2019-04-21T19:31:39.917Z,22.83
2019-04-21T19:33:49.390Z,26.03
2019-04-21T19:36:17.350Z,27.67
2019-04-21T19:39:07.561Z,32.00
2019-04-21T19:41:58.608Z,28.73
2019-04-21T19:44:43.390Z,34.87
2019-04-21T19:47:59.727Z,35.07
2019-04-21T19:51:04.241Z,27.93
2019-04-21T19:53:37.125Z,34.77
2019-04-21T19:56:03.791Z,23.97
2019-04-21T19:58:36.937Z,23.03
2019-04-21T20:01:03.624Z,15.03
2019-04-21T20:03:36.693Z,17.67
2019-04-21T20:06:16.428Z,14.40
2019-04-21T20:08:55.114Z,13.50
2019-04-21T20:11:24.133Z,11.17
2019-04-21T20:14:18.351Z,9.00
2019-04-21T20:16:33.960Z,10.57
2019-04-21T20:18:45.634Z,7.87
2019-04-21T20:21:10.114Z,7.13
2019-04-21T20:23:41.148Z,6.57
2019-04-21T20:26:11.711Z,13.13
2019-04-21T20:28:48.901Z,7.63
2019-04-21T20:31:23.660Z,6.20
2019-04-21T20:34:02.289Z,5.37
2019-04-21T20:36:33.211Z,6.90
2019-04-21T20:38:51.637Z,8.57
2019-04-21T20:41:29.803Z,7.17
2019-04-21T20:44:01.041Z,6.43
2019-04-21T20:46:36.591Z,6.53
2019-04-21T20:48:59.992Z,6.60
2019-04-21T20:51:36.253Z,8.93
2019-04-21T20:54:02.941Z,9.30
2019-04-21T20:56:37.505Z,6.30
2019-04-21T20:59:07.726Z,6.90
2019-04-21T21:01:34.851Z,8.37
2019-04-21T21:04:01.783Z,7.57
2019-04-21T21:06:36.100Z,9.27
2019-04-21T21:09:05.726Z,9.20
2019-04-21T21:11:36.712Z,9.43
2019-04-21T21:14:11.760Z,11.37
2019-04-21T21:16:47.608Z,12.77
2019-04-21T21:19:18.747Z,14.33
2019-04-21T21:21:39.963Z,14.60
2019-04-21T21:24:10.155Z,12.80
2019-04-21T21:26:43.954Z,13.57
2019-04-21T21:29:06.711Z,17.90
2019-04-21T21:31:41.771Z,11.97
2019-04-21T21:34:17.580Z,10.17
2019-04-21T21:36:47.752Z,11.37
2019-04-21T21:39:15.445Z,11.30
2019-04-21T21:41:34.512Z,15.23
2019-04-21T21:44:05.827Z,10.07
2019-04-21T21:46:45.607Z,7.90
2019-04-21T21:49:07.460Z,10.67
2019-04-21T21:51:42.991Z,11.80
2019-04-21T21:54:03.298Z,9.43
2019-04-21T21:56:32.350Z,9.97
2019-04-21T21:59:09.860Z,7.50
2019-04-21T22:01:38.879Z,8.40
2019-04-21T22:04:11.050Z,7.00
2019-04-21T22:06:42.001Z,8.43
2019-04-21T22:09:08.486Z,9.03
2019-04-21T22:11:38.046Z,12.87
2019-04-21T22:14:10.113Z,8.83
2019-04-21T22:16:47.469Z,9.00
2019-04-21T22:19:25.712Z,12.23
2019-04-21T22:21:55.113Z,11.07
2019-04-21T22:24:23.718Z,11.20
2019-04-21T22:26:41.063Z,13.17
2019-04-21T22:29:09.900Z,8.57
2019-04-21T22:31:39.681Z,10.63
2019-04-21T22:34:12.693Z,10.43
2019-04-21T22:36:48.859Z,9.80
2019-04-21T22:39:28.279Z,7.07
2019-04-21T22:41:46.668Z,9.77
2019-04-21T22:44:18.659Z,10.43
2019-04-21T22:47:00.052Z,7.50
2019-04-21T22:49:19.968Z,11.53
2019-04-21T22:51:51.828Z,8.03
2019-04-21T22:54:25.707Z,9.00
2019-04-21T22:56:58.628Z,7.53
2019-04-21T22:59:22.930Z,8.57
2019-04-21T23:01:53.678Z,7.40
2019-04-21T23:04:25.415Z,9.17
2019-04-21T23:06:56.628Z,10.93
2019-04-21T23:09:24.555Z,8.93
2019-04-21T23:11:56.638Z,8.13
2019-04-21T23:14:25.760Z,9.83
2019-04-21T23:17:14.942Z,6.93
2019-04-21T23:19:42.293Z,9.43
2019-04-21T23:22:16.218Z,6.27
2019-04-21T23:24:51.599Z,9.90
2019-04-21T23:27:15.411Z,10.00
2019-04-21T23:32:15.842Z,9.73
2019-04-21T23:34:36.709Z,10.17
2019-04-21T23:37:11.885Z,7.53
2019-04-21T23:39:37.309Z,11.07
2019-04-21T23:42:06.455Z,10.80
2019-04-21T23:44:41.719Z,10.60
2019-04-21T23:47:09.999Z,10.70
2019-04-21T23:49:49.960Z,11.50
2019-04-21T23:52:10.935Z,11.40
2019-04-21T23:54:38.390Z,10.03
2019-04-21T23:57:14.474Z,7.87
2019-04-21T23:59:43.859Z,11.20
